createdAt,value
2023-05-02T00:00:33.763Z,29.30
2023-05-02T00:03:00.794Z,29.33
2023-05-02T00:05:27.726Z,26.45
2023-05-02T00:07:54.356Z,24.23
2023-05-02T00:10:21.024Z,27.02
2023-05-02T00:12:47.716Z,27.02
2023-05-02T00:15:14.468Z,23.83
2023-05-02T00:17:44.624Z,19.42
2023-05-02T00:20:12.006Z,19.80
2023-05-02T00:22:39.214Z,23.73
2023-05-02T00:25:06.946Z,25.48
2023-05-02T00:27:33.695Z,20.77
2023-05-02T00:30:00.883Z,16.70
2023-05-02T00:32:28.238Z,18.55
2023-05-02T00:34:55.063Z,20.63
2023-05-02T00:37:21.722Z,17.65
2023-05-02T00:39:48.344Z,15.73
2023-05-02T00:42:14.983Z,15.50
2023-05-02T00:44:41.823Z,13.25
2023-05-02T00:47:08.494Z,10.63
2023-05-02T00:49:35.148Z,13.48
2023-05-02T00:52:02.568Z,8.77
2023-05-02T00:54:31.300Z,11.50
2023-05-02T00:56:58.911Z,8.70
2023-05-02T00:59:26.722Z,11.73
2023-05-02T01:02:21.524Z,13.40
2023-05-02T01:05:03.566Z,13.50
2023-05-02T01:07:48.930Z,10.48
2023-05-02T01:10:41.346Z,14.75
2023-05-02T01:13:11.285Z,16.48
2023-05-02T01:15:39.450Z,13.95
2023-05-02T01:18:12.041Z,12.98
2023-05-02T01:20:41.905Z,12.00
2023-05-02T01:23:18.245Z,12.02
2023-05-02T01:26:13.517Z,12.90
2023-05-02T01:29:00.339Z,11.02
2023-05-02T01:31:32.455Z,16.38
2023-05-02T01:34:00.437Z,9.25
2023-05-02T01:36:30.336Z,13.57
2023-05-02T01:38:57.865Z,18.00
2023-05-02T01:41:29.538Z,10.35
2023-05-02T01:43:58.767Z,10.50
2023-05-02T01:46:27.817Z,9.38
2023-05-02T01:48:57.692Z,13.32
2023-05-02T01:51:31.926Z,12.18
2023-05-02T01:54:05.677Z,8.05
2023-05-02T01:56:35.648Z,12.90
2023-05-02T01:59:06.856Z,9.40
2023-05-02T02:01:35.706Z,9.85
2023-05-02T02:04:04.545Z,15.82
2023-05-02T02:06:31.507Z,11.98
2023-05-02T02:08:59.277Z,13.50
2023-05-02T02:11:29.560Z,11.00
2023-05-02T02:14:03.303Z,10.32
2023-05-02T02:18:57.709Z,7.80
2023-05-02T02:21:26.804Z,11.05
2023-05-02T02:23:56.240Z,14.70
2023-05-02T02:26:23.684Z,9.90
2023-05-02T02:28:50.743Z,11.27
2023-05-02T02:31:17.343Z,13.98
2023-05-02T02:33:44.350Z,12.88
2023-05-02T02:36:34.467Z,10.35
2023-05-02T02:39:20.353Z,10.95
2023-05-02T02:42:02.410Z,12.57
2023-05-02T02:44:39.024Z,11.05
2023-05-02T02:47:16.430Z,8.70
2023-05-02T02:49:49.912Z,11.02
2023-05-02T02:52:33.138Z,15.32
2023-05-02T02:55:06.386Z,10.68
2023-05-02T02:57:52.695Z,10.57
2023-05-02T03:00:22.438Z,16.73
2023-05-02T03:02:49.234Z,18.27
2023-05-02T03:05:16.380Z,18.80
2023-05-02T03:07:43.163Z,24.42
2023-05-02T03:10:11.947Z,19.33
2023-05-02T03:12:43.658Z,22.65
2023-05-02T03:15:20.240Z,17.98
2023-05-02T03:17:47.117Z,18.17
2023-05-02T03:20:14.091Z,27.40
2023-05-02T03:22:41.282Z,22.08
2023-05-02T03:25:08.822Z,24.90
2023-05-02T03:27:38.474Z,23.55
2023-05-02T03:30:09.024Z,24.77
2023-05-02T03:32:36.584Z,28.30
2023-05-02T03:35:03.949Z,23.77
2023-05-02T03:40:03.712Z,33.63
2023-05-02T03:42:30.439Z,25.08
2023-05-02T03:44:57.968Z,24.00
2023-05-02T03:47:26.947Z,26.40
2023-05-02T03:49:53.761Z,19.45
2023-05-02T03:52:21.228Z,24.00
2023-05-02T03:54:50.342Z,19.90
2023-05-02T03:57:17.520Z,24.98
2023-05-02T03:59:45.825Z,24.40
2023-05-02T04:02:21.938Z,27.25
2023-05-02T04:04:49.326Z,22.50
2023-05-02T04:07:19.711Z,24.20
2023-05-02T04:09:51.953Z,19.05
2023-05-02T04:12:19.079Z,30.00
2023-05-02T04:14:48.937Z,23.23
2023-05-02T04:17:16.380Z,20.10
2023-05-02T04:19:46.569Z,18.58
2023-05-02T04:22:14.162Z,25.33
2023-05-02T04:24:46.384Z,16.75
2023-05-02T04:27:15.266Z,19.75
2023-05-02T04:29:43.945Z,22.45
2023-05-02T04:32:11.660Z,24.33
2023-05-02T04:34:39.248Z,17.52
2023-05-02T04:37:06.384Z,15.50
2023-05-02T04:39:34.649Z,19.33
2023-05-02T04:42:06.056Z,18.13
2023-05-02T04:44:38.049Z,14.93
2023-05-02T04:47:04.898Z,16.42
2023-05-02T04:49:32.459Z,21.55
2023-05-02T04:51:59.269Z,14.30
2023-05-02T04:54:25.935Z,19.00
2023-05-02T04:56:52.539Z,18.50
2023-05-02T04:59:20.361Z,25.90
2023-05-02T05:01:47.069Z,13.77
2023-05-02T05:04:13.912Z,27.00
2023-05-02T05:06:41.283Z,12.40
2023-05-02T05:09:08.567Z,14.75
2023-05-02T05:11:36.355Z,13.32
2023-05-02T05:14:04.449Z,12.30
2023-05-02T05:16:34.947Z,12.85
2023-05-02T05:19:01.628Z,23.00
2023-05-02T05:21:28.754Z,10.30
2023-05-02T05:23:56.480Z,7.88
2023-05-02T05:26:27.276Z,8.65
2023-05-02T05:28:55.018Z,12.07
2023-05-02T05:31:24.449Z,13.95
2023-05-02T05:33:54.846Z,9.75
2023-05-02T05:36:23.739Z,9.30
2023-05-02T05:38:51.395Z,7.93
2023-05-02T05:41:18.723Z,9.38
2023-05-02T05:43:49.109Z,10.02
2023-05-02T05:46:16.225Z,7.68
2023-05-02T05:48:42.929Z,8.35
2023-05-02T05:51:10.301Z,10.98
2023-05-02T05:53:36.931Z,7.82
2023-05-02T05:56:10.330Z,7.20
2023-05-02T05:58:39.145Z,10.60
2023-05-02T06:01:06.812Z,11.30
2023-05-02T06:03:33.836Z,11.60
2023-05-02T06:06:00.606Z,10.85
2023-05-02T06:08:27.300Z,9.80
2023-05-02T06:10:53.912Z,13.77
2023-05-02T06:13:20.610Z,13.23
2023-05-02T06:15:48.533Z,15.13
2023-05-02T06:18:15.540Z,13.77
2023-05-02T06:20:43.098Z,7.82
2023-05-02T06:23:09.736Z,10.25
2023-05-02T06:25:39.273Z,7.88
2023-05-02T06:28:06.243Z,13.02
2023-05-02T06:30:32.939Z,11.45
2023-05-02T06:32:59.558Z,8.15
2023-05-02T06:35:26.282Z,8.55
2023-05-02T06:37:52.821Z,13.70
2023-05-02T06:40:19.380Z,13.45
2023-05-02T06:42:46.004Z,16.83
2023-05-02T06:45:15.815Z,13.82
2023-05-02T06:47:42.487Z,8.32
2023-05-02T06:50:09.653Z,10.38
2023-05-02T06:52:36.302Z,11.45
2023-05-02T06:55:02.982Z,13.35
2023-05-02T06:57:29.693Z,11.25
2023-05-02T06:59:56.754Z,14.85
2023-05-02T07:02:23.482Z,14.98
2023-05-02T07:04:50.075Z,11.25
2023-05-02T07:07:18.797Z,11.68
2023-05-02T07:09:45.668Z,10.80
2023-05-02T07:12:12.410Z,14.00
2023-05-02T07:14:39.425Z,10.52
2023-05-02T07:17:06.440Z,15.35
2023-05-02T07:19:33.291Z,12.68
2023-05-02T07:21:59.874Z,14.40
2023-05-02T07:24:26.483Z,13.15
2023-05-02T07:26:53.167Z,15.93
2023-05-02T07:29:19.805Z,15.80
2023-05-02T07:31:46.619Z,19.15
2023-05-02T07:34:13.269Z,15.52
2023-05-02T07:36:40.006Z,10.52
2023-05-02T07:39:06.652Z,15.57
2023-05-02T07:41:33.338Z,11.38
2023-05-02T07:44:00.038Z,7.93
2023-05-02T07:46:26.843Z,8.60
2023-05-02T07:48:54.166Z,13.75
2023-05-02T07:51:21.667Z,9.25
2023-05-02T07:53:54.376Z,15.95
2023-05-02T07:56:21.294Z,9.43
2023-05-02T07:58:47.930Z,16.75
2023-05-02T08:01:14.546Z,11.13
2023-05-02T08:03:41.339Z,11.05
2023-05-02T08:06:09.469Z,13.63
2023-05-02T08:08:36.293Z,12.63
2023-05-02T08:11:03.076Z,16.05
2023-05-02T08:13:29.815Z,12.02
2023-05-02T08:15:59.914Z,9.27
2023-05-02T08:18:27.179Z,12.48
2023-05-02T08:20:56.411Z,14.75
2023-05-02T08:23:23.065Z,12.27
2023-05-02T08:25:49.797Z,8.57
2023-05-02T08:28:16.417Z,12.45
2023-05-02T08:30:45.310Z,7.13
2023-05-02T08:33:12.000Z,11.70
2023-05-02T08:35:38.668Z,12.90
2023-05-02T08:38:05.458Z,10.02
2023-05-02T08:40:42.043Z,11.63
2023-05-02T08:43:11.812Z,9.40
2023-05-02T08:45:43.600Z,7.05
2023-05-02T08:48:12.452Z,10.63
2023-05-02T08:50:41.594Z,11.18
2023-05-02T08:53:09.396Z,10.63
2023-05-02T08:55:40.055Z,15.00
2023-05-02T08:58:08.717Z,5.55
2023-05-02T09:00:39.858Z,11.80
2023-05-02T09:03:29.251Z,9.05
2023-05-02T09:06:05.164Z,7.72
2023-05-02T09:08:31.947Z,9.80
2023-05-02T09:10:58.790Z,8.70
2023-05-02T09:13:39.360Z,9.40
2023-05-02T09:16:10.133Z,5.68
2023-05-02T09:18:38.961Z,11.27
2023-05-02T09:21:21.268Z,12.88
2023-05-02T09:23:53.215Z,11.82
2023-05-02T09:26:37.766Z,12.73
2023-05-02T09:29:05.394Z,10.15
2023-05-02T09:31:54.907Z,11.43
2023-05-02T09:34:22.721Z,9.13
2023-05-02T09:36:52.016Z,8.05
2023-05-02T09:39:26.742Z,9.70
2023-05-02T09:41:54.197Z,6.88
2023-05-02T09:44:25.199Z,12.90
2023-05-02T09:46:54.171Z,8.65
2023-05-02T09:49:40.174Z,9.57
2023-05-02T09:52:14.710Z,6.82
2023-05-02T09:54:41.455Z,11.75
2023-05-02T09:57:08.150Z,10.18
2023-05-02T09:59:34.730Z,10.88
2023-05-02T10:02:03.332Z,8.48
2023-05-02T10:04:31.969Z,9.27
2023-05-02T10:06:59.102Z,8.27
2023-05-02T10:09:27.944Z,9.70
2023-05-02T10:11:56.549Z,7.32
2023-05-02T10:14:27.041Z,8.70
2023-05-02T10:17:02.149Z,9.10
2023-05-02T10:19:31.417Z,7.57
2023-05-02T10:21:58.773Z,9.45
2023-05-02T10:24:25.856Z,5.97
2023-05-02T10:26:52.977Z,7.50
2023-05-02T10:29:19.909Z,10.27
2023-05-02T10:31:47.409Z,7.22
2023-05-02T10:34:14.419Z,8.85
2023-05-02T10:36:41.063Z,7.93
2023-05-02T10:39:08.011Z,5.07
2023-05-02T10:41:35.552Z,7.43
2023-05-02T10:44:07.486Z,5.10
2023-05-02T10:46:40.851Z,6.93
2023-05-02T10:49:09.375Z,9.15
2023-05-02T10:51:37.867Z,5.63
2023-05-02T10:54:24.756Z,6.75
2023-05-02T10:57:03.982Z,7.28
2023-05-02T10:59:38.114Z,6.43
2023-05-02T11:02:25.286Z,7.22
2023-05-02T11:05:08.019Z,5.47
2023-05-02T11:07:36.009Z,9.85
2023-05-02T11:10:17.601Z,7.28
2023-05-02T11:12:51.676Z,6.32
2023-05-02T11:15:27.691Z,5.80
2023-05-02T11:18:02.091Z,11.25
2023-05-02T11:20:30.021Z,7.65
2023-05-02T11:22:58.237Z,8.48
2023-05-02T11:25:36.030Z,5.55
2023-05-02T11:28:04.597Z,6.78
2023-05-02T11:30:43.518Z,3.22
2023-05-02T11:33:10.557Z,7.25
2023-05-02T11:35:37.350Z,7.28
2023-05-02T11:38:06.723Z,4.07
2023-05-02T11:40:33.356Z,4.30
2023-05-02T11:43:01.063Z,5.88
2023-05-02T11:45:37.587Z,3.97
2023-05-02T11:48:08.190Z,3.97
2023-05-02T11:50:55.206Z,2.58
2023-05-02T11:53:26.533Z,4.30
2023-05-02T11:55:55.187Z,3.53
2023-05-02T11:58:23.934Z,3.78
2023-05-02T12:00:52.440Z,5.97
2023-05-02T12:03:29.653Z,2.97
2023-05-02T12:05:57.729Z,4.32
2023-05-02T12:08:28.401Z,3.80
2023-05-02T12:10:56.471Z,5.55
2023-05-02T12:13:25.384Z,4.22
2023-05-02T12:15:53.898Z,3.92
2023-05-02T12:18:23.906Z,3.60
2023-05-02T12:20:52.068Z,4.95
2023-05-02T12:23:20.945Z,5.75
2023-05-02T12:25:48.695Z,5.07
2023-05-02T12:28:18.371Z,5.75
2023-05-02T12:30:47.897Z,3.97
2023-05-02T12:33:14.682Z,8.55
2023-05-02T12:35:41.396Z,7.70
2023-05-02T12:38:16.064Z,3.13
2023-05-02T12:40:53.492Z,9.35
2023-05-02T12:43:22.173Z,3.13
2023-05-02T12:45:49.657Z,4.80
2023-05-02T12:48:26.424Z,4.20
2023-05-02T12:50:55.380Z,8.13
2023-05-02T12:53:41.630Z,3.50
2023-05-02T12:56:08.773Z,3.38
2023-05-02T12:58:48.168Z,5.05
2023-05-02T13:01:15.713Z,4.22
2023-05-02T13:03:43.770Z,7.95
2023-05-02T13:06:11.085Z,5.18
2023-05-02T13:08:37.877Z,5.25
2023-05-02T13:11:04.650Z,6.68
2023-05-02T13:13:32.648Z,7.22
2023-05-02T13:15:59.497Z,5.13
2023-05-02T13:18:28.104Z,4.97
2023-05-02T13:20:55.113Z,4.40
2023-05-02T13:23:21.901Z,3.20
2023-05-02T13:25:48.525Z,5.60
2023-05-02T13:28:15.423Z,5.97
2023-05-02T13:30:42.172Z,3.30
2023-05-02T13:33:09.282Z,5.30
2023-05-02T13:35:35.995Z,4.68
2023-05-02T13:38:03.277Z,4.55
2023-05-02T13:40:29.983Z,4.68
2023-05-02T13:42:56.692Z,5.63
2023-05-02T13:45:23.293Z,2.85
2023-05-02T13:47:50.018Z,5.05
2023-05-02T13:50:16.846Z,5.28
2023-05-02T13:52:43.623Z,2.97
2023-05-02T13:55:10.371Z,3.53
2023-05-02T13:57:37.010Z,4.30
2023-05-02T14:00:04.749Z,2.75
2023-05-02T14:02:32.128Z,3.30
2023-05-02T14:04:58.829Z,4.80
2023-05-02T14:07:25.503Z,4.70
2023-05-02T14:09:52.118Z,6.07
2023-05-02T14:12:18.749Z,3.90
2023-05-02T14:14:45.468Z,1.77
2023-05-02T14:17:12.263Z,3.88
2023-05-02T14:19:38.958Z,3.95
2023-05-02T14:22:05.583Z,3.65
2023-05-02T14:24:32.329Z,4.75
2023-05-02T14:26:59.054Z,3.20
2023-05-02T14:29:25.818Z,4.88
2023-05-02T14:31:52.502Z,4.03
2023-05-02T14:34:19.288Z,2.33
2023-05-02T14:36:46.023Z,3.55
2023-05-02T14:39:12.727Z,4.03
2023-05-02T14:41:39.402Z,1.67
2023-05-02T14:44:06.042Z,3.65
2023-05-02T14:46:32.634Z,2.80
2023-05-02T14:48:59.361Z,5.40
2023-05-02T14:51:26.472Z,3.17
2023-05-02T14:53:54.348Z,2.92
2023-05-02T14:56:21.639Z,4.03
2023-05-02T14:58:48.270Z,5.60
2023-05-02T15:01:21.979Z,4.40
2023-05-02T15:04:05.145Z,5.85
2023-05-02T15:06:34.018Z,3.55
2023-05-02T15:09:01.762Z,2.42
2023-05-02T15:11:28.722Z,4.45
2023-05-02T15:13:56.736Z,3.90
2023-05-02T15:16:24.155Z,5.35
2023-05-02T15:18:50.856Z,2.28
2023-05-02T15:21:17.687Z,3.10
2023-05-02T15:23:44.315Z,4.78
2023-05-02T15:26:11.054Z,2.08
2023-05-02T15:28:37.688Z,2.67
2023-05-02T15:31:04.828Z,3.33
2023-05-02T15:33:31.495Z,5.10
2023-05-02T15:35:58.759Z,3.83
2023-05-02T15:38:25.890Z,8.15
2023-05-02T15:40:59.628Z,5.00
2023-05-02T15:43:27.350Z,5.25
2023-05-02T15:45:58.474Z,5.18
2023-05-02T15:48:29.605Z,2.80
2023-05-02T15:50:56.868Z,4.20
2023-05-02T15:53:23.820Z,2.60
2023-05-02T15:55:51.712Z,3.53
2023-05-02T15:58:18.865Z,4.28
2023-05-02T16:00:46.979Z,8.60
2023-05-02T16:03:14.133Z,5.95
2023-05-02T16:05:41.074Z,6.00
2023-05-02T16:08:07.780Z,4.45
2023-05-02T16:10:36.507Z,3.17
2023-05-02T16:13:03.395Z,5.68
2023-05-02T16:15:30.514Z,5.68
2023-05-02T16:17:57.468Z,5.32
2023-05-02T16:20:24.271Z,3.05
2023-05-02T16:22:51.417Z,4.68
2023-05-02T16:25:19.039Z,2.25
2023-05-02T16:27:45.846Z,3.22
2023-05-02T16:30:12.837Z,4.10
2023-05-02T16:32:39.552Z,3.20
2023-05-02T16:35:08.190Z,7.85
2023-05-02T16:37:35.317Z,5.15
2023-05-02T16:40:03.139Z,4.07
2023-05-02T16:42:30.190Z,3.58
2023-05-02T16:44:57.458Z,5.00
2023-05-02T16:47:24.247Z,6.57
2023-05-02T16:50:01.682Z,4.40
2023-05-02T16:52:28.825Z,5.00
2023-05-02T16:54:55.533Z,2.13
2023-05-02T16:57:23.286Z,6.15
2023-05-02T16:59:52.966Z,4.65
2023-05-02T17:02:23.540Z,3.78
2023-05-02T17:04:50.564Z,6.88
2023-05-02T17:07:17.577Z,3.78
2023-05-02T17:09:44.620Z,3.40
2023-05-02T17:12:12.208Z,9.15
2023-05-02T17:14:42.520Z,4.75
2023-05-02T17:17:09.817Z,5.43
2023-05-02T17:19:37.059Z,3.75
2023-05-02T17:22:05.305Z,5.50
2023-05-02T17:24:32.510Z,2.50
2023-05-02T17:26:59.362Z,3.65
2023-05-02T17:29:25.966Z,4.43
2023-05-02T17:31:52.688Z,4.43
2023-05-02T17:34:19.344Z,4.13
2023-05-02T17:36:47.136Z,4.57
2023-05-02T17:39:15.877Z,3.45
2023-05-02T17:41:42.517Z,3.95
2023-05-02T17:44:09.078Z,5.45
2023-05-02T17:46:35.843Z,4.47
2023-05-02T17:49:02.610Z,4.15
2023-05-02T17:51:29.261Z,4.55
2023-05-02T17:53:55.907Z,3.70
2023-05-02T17:56:22.594Z,4.78
2023-05-02T17:58:49.223Z,7.50
2023-05-02T18:01:17.546Z,5.15
2023-05-02T18:03:44.550Z,2.78
2023-05-02T18:06:18.606Z,5.30
2023-05-02T18:08:45.739Z,2.70
2023-05-02T18:11:19.580Z,6.80
2023-05-02T18:13:46.530Z,2.65
2023-05-02T18:16:14.160Z,4.30
2023-05-02T18:18:41.567Z,5.30
2023-05-02T18:21:09.550Z,5.65
2023-05-02T18:23:36.439Z,7.07
2023-05-02T18:26:03.305Z,7.72
2023-05-02T18:28:30.250Z,8.90
2023-05-02T18:30:56.895Z,5.70
2023-05-02T18:33:23.573Z,5.25
2023-05-02T18:35:50.293Z,6.53
2023-05-02T18:38:17.490Z,5.13
2023-05-02T18:40:44.439Z,5.38
2023-05-02T18:43:11.161Z,4.10
2023-05-02T18:45:38.495Z,3.70
2023-05-02T18:48:05.522Z,7.50
2023-05-02T18:50:32.196Z,4.85
2023-05-02T18:52:58.868Z,5.70
2023-05-02T18:55:25.809Z,5.45
2023-05-02T18:57:52.428Z,3.83
2023-05-02T19:00:20.396Z,7.07
2023-05-02T19:02:47.840Z,5.65
2023-05-02T19:05:15.179Z,5.88
2023-05-02T19:07:42.435Z,6.85
2023-05-02T19:10:11.123Z,6.20
2023-05-02T19:12:38.368Z,6.20
2023-05-02T19:15:06.625Z,3.78
2023-05-02T19:17:33.577Z,6.03
2023-05-02T19:20:00.408Z,7.40
2023-05-02T19:22:27.759Z,4.40
2023-05-02T19:24:54.661Z,4.63
2023-05-02T19:27:21.290Z,4.22
2023-05-02T19:29:48.024Z,6.22
2023-05-02T19:32:15.028Z,5.35
2023-05-02T19:34:42.100Z,5.45
2023-05-02T19:37:09.089Z,8.90
2023-05-02T19:39:35.780Z,6.55
2023-05-02T19:42:03.272Z,7.28
2023-05-02T19:44:30.470Z,4.22
2023-05-02T19:46:57.113Z,3.97
2023-05-02T19:49:23.740Z,4.78
2023-05-02T19:51:50.481Z,4.57
2023-05-02T19:54:17.173Z,4.22
2023-05-02T19:56:44.019Z,6.93
2023-05-02T19:59:10.650Z,3.58
2023-05-02T20:01:37.429Z,3.75
2023-05-02T20:04:04.110Z,4.47
2023-05-02T20:06:31.977Z,7.80
2023-05-02T20:08:58.794Z,4.40
2023-05-02T20:11:26.017Z,7.78
2023-05-02T20:13:52.741Z,4.82
2023-05-02T20:16:19.409Z,11.38
2023-05-02T20:18:46.113Z,9.23
2023-05-02T20:21:12.728Z,5.95
2023-05-02T20:23:43.460Z,4.75
2023-05-02T20:26:10.616Z,7.97
2023-05-02T20:28:37.880Z,7.95
2023-05-02T20:31:04.852Z,9.15
2023-05-02T20:33:43.750Z,8.70
2023-05-02T20:36:13.253Z,9.30
2023-05-02T20:38:42.538Z,4.32
2023-05-02T20:41:12.615Z,6.25
2023-05-02T20:43:45.005Z,7.85
2023-05-02T20:46:13.479Z,3.53
2023-05-02T20:48:40.342Z,3.90
2023-05-02T20:51:08.738Z,4.53
2023-05-02T20:53:38.835Z,4.97
2023-05-02T20:56:06.119Z,5.63
2023-05-02T20:58:32.955Z,6.07
2023-05-02T21:00:59.683Z,7.32
2023-05-02T21:03:27.356Z,4.18
2023-05-02T21:05:55.609Z,7.07
2023-05-02T21:08:23.750Z,5.93
2023-05-02T21:10:51.421Z,11.07
2023-05-02T21:13:18.097Z,7.25
2023-05-02T21:15:45.028Z,6.30
2023-05-02T21:18:12.080Z,4.95
2023-05-02T21:20:41.356Z,5.18
2023-05-02T21:23:11.085Z,5.72
2023-05-02T21:25:38.450Z,9.40
2023-05-02T21:28:05.881Z,5.38
2023-05-02T21:30:32.610Z,10.38
2023-05-02T21:32:59.319Z,8.27
2023-05-02T21:35:25.916Z,5.53
2023-05-02T21:37:52.557Z,6.53
2023-05-02T21:40:19.221Z,5.90
2023-05-02T21:42:45.855Z,7.43
2023-05-02T21:45:12.613Z,7.07
2023-05-02T21:47:39.247Z,5.53
2023-05-02T21:50:06.456Z,6.38
2023-05-02T21:52:33.110Z,6.68
2023-05-02T21:54:59.727Z,6.30
2023-05-02T21:57:26.343Z,8.65
2023-05-02T21:59:52.984Z,5.05
2023-05-02T22:02:19.694Z,8.77
2023-05-02T22:04:48.134Z,8.45
2023-05-02T22:07:16.032Z,5.07
2023-05-02T22:09:43.035Z,8.38
2023-05-02T22:12:09.720Z,6.05
2023-05-02T22:14:44.479Z,4.40
2023-05-02T22:17:13.265Z,4.72
2023-05-02T22:19:40.586Z,6.00
2023-05-02T22:22:07.305Z,5.47
2023-05-02T22:24:33.953Z,4.63
2023-05-02T22:27:00.846Z,5.35
2023-05-02T22:29:27.450Z,4.95
2023-05-02T22:31:54.173Z,5.88
2023-05-02T22:34:20.854Z,5.93
2023-05-02T22:36:47.521Z,7.53
2023-05-02T22:39:15.751Z,6.00
2023-05-02T22:41:42.859Z,6.88
2023-05-02T22:44:09.717Z,5.28
2023-05-02T22:46:38.090Z,5.35
2023-05-02T22:49:09.522Z,4.50
2023-05-02T22:51:42.588Z,5.68
2023-05-02T22:54:10.240Z,7.75
2023-05-02T22:56:36.807Z,6.18
2023-05-02T22:59:03.414Z,7.07
2023-05-02T23:01:30.081Z,6.97
2023-05-02T23:03:56.926Z,7.07
2023-05-02T23:06:23.696Z,7.60
2023-05-02T23:08:50.507Z,5.13
2023-05-02T23:11:17.081Z,6.65
2023-05-02T23:13:43.740Z,5.07
2023-05-02T23:16:10.530Z,6.13
2023-05-02T23:18:37.157Z,6.03
2023-05-02T23:21:04.391Z,7.35
2023-05-02T23:23:31.202Z,4.47
2023-05-02T23:25:58.049Z,8.30
2023-05-02T23:28:24.766Z,3.70
2023-05-02T23:30:51.627Z,5.90
2023-05-02T23:33:18.401Z,6.28
2023-05-02T23:35:45.345Z,6.38
2023-05-02T23:38:12.022Z,5.75
2023-05-02T23:40:38.596Z,5.50
2023-05-02T23:43:07.382Z,6.63
2023-05-02T23:45:34.078Z,6.35
2023-05-02T23:48:00.762Z,6.25
2023-05-02T23:50:27.457Z,7.22
2023-05-02T23:52:54.130Z,4.60
2023-05-02T23:55:20.760Z,5.78
2023-05-02T23:57:47.397Z,7.18
